createdAt,value
2019-01-19T00:00:01.935Z,95.80
2019-01-19T00:02:37.030Z,92.67
2019-01-19T00:05:11.733Z,87.05
2019-01-19T00:07:46.417Z,86.28
2019-01-19T00:10:33.285Z,89.52
2019-01-19T00:13:23.411Z,86.45
2019-01-19T00:16:04.221Z,87.62
2019-01-19T00:18:52.581Z,87.35
2019-01-19T00:21:27.544Z,89.92
2019-01-19T00:24:05.187Z,86.10
2019-01-19T00:26:49.229Z,94.50
2019-01-19T00:29:23.918Z,107.35
2019-01-19T00:32:02.053Z,86.25
2019-01-19T00:34:59.941Z,80.40
2019-01-19T00:37:32.175Z,81.17
2019-01-19T00:40:22.317Z,79.65
2019-01-19T00:42:54.932Z,91.95
2019-01-19T00:45:29.688Z,95.72
2019-01-19T00:48:10.797Z,87.75
2019-01-19T00:50:54.802Z,91.40
2019-01-19T00:53:29.560Z,98.82
2019-01-19T00:56:10.707Z,90.70
2019-01-19T00:58:42.971Z,104.45
2019-01-19T01:01:15.249Z,95.55
2019-01-19T01:03:50.379Z,88.15
2019-01-19T01:06:38.790Z,97.60
2019-01-19T01:09:19.822Z,92.22
2019-01-19T01:11:54.524Z,104.72
2019-01-19T01:14:52.180Z,81.78
2019-01-19T01:17:27.205Z,96.65
2019-01-19T01:20:08.402Z,95.03
2019-01-19T01:22:58.472Z,87.80
2019-01-19T01:25:33.474Z,104.43
2019-01-19T01:28:23.575Z,95.25
2019-01-19T01:30:55.853Z,93.33
2019-01-19T01:33:33.986Z,91.02
2019-01-19T01:36:08.842Z,96.92
2019-01-19T01:39:17.775Z,98.82
2019-01-19T01:41:53.027Z,105.20
2019-01-19T01:44:30.662Z,93.45
2019-01-19T01:47:11.461Z,102.55
2019-01-19T01:49:52.597Z,105.78
2019-01-19T01:52:27.548Z,109.83
2019-01-19T01:55:02.423Z,100.60
2019-01-19T01:57:33.367Z,99.45
2019-01-19T02:00:23.895Z,97.22
2019-01-19T02:02:56.141Z,99.83
2019-01-19T02:05:40.194Z,93.45
2019-01-19T02:08:16.964Z,98.92
2019-01-19T02:11:10.037Z,93.97
2019-01-19T02:14:00.099Z,96.15
2019-01-19T02:17:06.872Z,88.30
2019-01-19T02:19:59.418Z,97.50
2019-01-19T02:22:37.358Z,84.80
2019-01-19T02:25:18.006Z,80.07
2019-01-19T02:27:55.478Z,81.65
2019-01-19T02:30:46.912Z,84.05
2019-01-19T02:33:28.026Z,90.12
2019-01-19T02:36:15.106Z,86.97
2019-01-19T02:39:20.302Z,91.42
2019-01-19T02:41:55.495Z,101.02
2019-01-19T02:44:30.469Z,87.53
2019-01-19T02:47:24.676Z,92.17
2019-01-19T02:50:11.663Z,93.42
2019-01-19T02:52:46.593Z,105.90
2019-01-19T02:55:45.702Z,95.80
2019-01-19T02:58:29.400Z,88.58
2019-01-19T03:01:16.984Z,92.42
2019-01-19T03:03:57.269Z,82.90
2019-01-19T03:06:35.229Z,93.62
2019-01-19T03:09:09.989Z,85.87
2019-01-19T03:15:15.401Z,89.92
2019-01-19T03:18:02.383Z,84.13
2019-01-19T03:20:34.637Z,77.62
2019-01-19T03:23:09.620Z,90.85
2019-01-19T03:25:41.941Z,90.90
2019-01-19T03:28:19.990Z,84.45
2019-01-19T03:31:25.157Z,87.45
2019-01-19T03:34:11.973Z,84.67
2019-01-19T03:36:44.227Z,85.42
2019-01-19T03:39:29.211Z,88.82
2019-01-19T03:42:07.162Z,83.27
2019-01-19T03:44:41.833Z,84.52
2019-01-19T03:47:39.058Z,89.47
2019-01-19T03:50:32.299Z,82.88
2019-01-19T03:53:04.636Z,78.87
2019-01-19T03:55:36.856Z,81.35
2019-01-19T03:58:21.143Z,75.60
2019-01-19T04:01:14.795Z,79.72
2019-01-19T04:04:05.196Z,76.00
2019-01-19T04:06:43.149Z,77.50
2019-01-19T04:09:36.299Z,74.10
2019-01-19T04:12:13.910Z,77.53
2019-01-19T04:15:05.804Z,87.17
2019-01-19T04:17:41.563Z,71.12
2019-01-19T04:20:31.468Z,75.92
2019-01-19T04:23:01.791Z,79.47
2019-01-19T04:25:34.057Z,78.55
2019-01-19T04:28:04.586Z,71.15
2019-01-19T04:30:33.772Z,73.25
2019-01-19T04:33:02.889Z,68.42
2019-01-19T04:35:32.161Z,83.80
2019-01-19T04:38:01.260Z,67.10
2019-01-19T04:40:30.494Z,76.82
2019-01-19T04:42:59.740Z,74.65
2019-01-19T04:45:28.850Z,74.53
2019-01-19T04:47:57.968Z,77.03
2019-01-19T04:50:27.195Z,75.30
2019-01-19T04:52:56.411Z,70.67
2019-01-19T04:55:25.665Z,67.50
2019-01-19T04:57:54.888Z,66.22
2019-01-19T05:00:24.153Z,71.55
2019-01-19T05:02:53.418Z,66.28
2019-01-19T05:05:22.641Z,70.87
2019-01-19T05:07:51.840Z,67.35
2019-01-19T05:10:21.036Z,65.83
2019-01-19T05:12:50.268Z,63.13
2019-01-19T05:15:19.741Z,66.20
2019-01-19T05:17:49.207Z,64.80
2019-01-19T05:20:18.493Z,76.10
2019-01-19T05:22:47.680Z,66.77
2019-01-19T05:25:16.893Z,65.62
2019-01-19T05:27:46.147Z,68.05
2019-01-19T05:30:17.345Z,70.05
2019-01-19T05:32:46.788Z,64.75
2019-01-19T05:35:16.181Z,67.25
2019-01-19T05:37:45.399Z,70.62
2019-01-19T05:40:14.682Z,63.00
2019-01-19T05:42:43.879Z,63.13
2019-01-19T05:45:14.611Z,58.33
2019-01-19T05:47:43.813Z,64.05
2019-01-19T05:50:16.052Z,71.75
2019-01-19T05:52:45.321Z,70.32
2019-01-19T05:55:14.545Z,58.15
2019-01-19T05:57:43.762Z,63.65
2019-01-19T06:00:18.440Z,62.15
2019-01-19T06:02:47.617Z,66.15
2019-01-19T06:05:16.962Z,62.05
2019-01-19T06:07:46.157Z,56.58
2019-01-19T06:10:17.156Z,64.60
2019-01-19T06:12:46.361Z,63.23
2019-01-19T06:15:16.303Z,62.70
2019-01-19T06:17:45.481Z,55.83
2019-01-19T06:20:19.195Z,54.90
2019-01-19T06:23:06.281Z,51.58
2019-01-19T06:25:53.551Z,54.18
2019-01-19T06:28:22.767Z,56.42
2019-01-19T06:30:52.131Z,62.20
2019-01-19T06:33:21.542Z,54.00
2019-01-19T06:35:50.658Z,47.85
2019-01-19T06:38:19.848Z,54.93
2019-01-19T06:40:49.059Z,45.78
2019-01-19T06:43:18.251Z,45.60
2019-01-19T06:45:47.450Z,50.33
2019-01-19T06:48:16.651Z,49.98
2019-01-19T06:50:45.841Z,47.30
2019-01-19T06:53:15.038Z,41.37
2019-01-19T06:55:44.462Z,40.48
2019-01-19T06:58:13.647Z,38.90
2019-01-19T07:00:42.891Z,49.18
2019-01-19T07:03:12.059Z,37.20
2019-01-19T07:05:41.307Z,33.58
2019-01-19T07:08:28.825Z,31.30
2019-01-19T07:11:15.903Z,37.63
2019-01-19T07:13:45.145Z,39.05
2019-01-19T07:16:14.332Z,34.78
2019-01-19T07:18:43.536Z,32.90
2019-01-19T07:21:12.764Z,33.70
2019-01-19T07:23:42.031Z,33.73
2019-01-19T07:26:11.595Z,30.90
2019-01-19T07:28:40.794Z,29.95
2019-01-19T07:31:10.200Z,34.80
2019-01-19T07:33:39.417Z,26.05
2019-01-19T07:36:08.622Z,28.70
2019-01-19T07:38:37.811Z,27.27
2019-01-19T07:41:07.003Z,31.50
2019-01-19T07:43:36.268Z,25.72
2019-01-19T07:46:07.091Z,32.67
2019-01-19T07:48:36.285Z,26.17
2019-01-19T07:51:05.510Z,25.10
2019-01-19T07:53:34.689Z,31.20
2019-01-19T07:56:04.047Z,28.98
2019-01-19T07:58:33.291Z,25.45
2019-01-19T08:01:02.489Z,26.17
2019-01-19T08:03:31.714Z,23.32
2019-01-19T08:06:00.911Z,23.25
2019-01-19T08:08:30.107Z,26.82
2019-01-19T08:10:59.377Z,25.82
2019-01-19T08:13:28.524Z,21.60
2019-01-19T08:15:57.707Z,21.02
2019-01-19T08:18:26.918Z,29.57
2019-01-19T08:20:56.125Z,18.57
2019-01-19T08:23:26.220Z,24.00
2019-01-19T08:25:55.473Z,22.50
2019-01-19T08:28:24.706Z,23.40
2019-01-19T08:30:53.975Z,24.92
2019-01-19T08:33:23.180Z,24.30
2019-01-19T08:35:52.400Z,25.48
2019-01-19T08:38:22.539Z,24.60
2019-01-19T08:40:51.763Z,24.50
2019-01-19T08:43:28.877Z,22.15
2019-01-19T08:45:58.059Z,27.67
2019-01-19T08:48:27.254Z,22.75
2019-01-19T08:50:56.458Z,22.95
2019-01-19T08:53:25.640Z,29.25
2019-01-19T08:55:54.841Z,21.12
2019-01-19T08:58:24.100Z,23.12
2019-01-19T09:00:53.285Z,24.18
2019-01-19T09:03:22.459Z,24.82
2019-01-19T09:05:51.733Z,21.15
2019-01-19T09:08:38.889Z,23.05
2019-01-19T09:11:08.122Z,17.23
2019-01-19T09:13:55.332Z,19.37
2019-01-19T09:16:42.548Z,22.67
2019-01-19T09:19:11.740Z,17.60
2019-01-19T09:21:40.948Z,18.80
2019-01-19T09:24:10.821Z,24.55
2019-01-19T09:26:39.998Z,16.87
2019-01-19T09:29:09.187Z,22.80
2019-01-19T09:31:38.438Z,18.75
2019-01-19T09:34:07.617Z,20.97
2019-01-19T09:36:36.880Z,16.73
2019-01-19T09:39:09.401Z,19.48
2019-01-19T09:41:38.578Z,15.03
2019-01-19T09:44:09.993Z,14.60
2019-01-19T09:46:39.267Z,14.15
2019-01-19T09:49:08.606Z,18.82
2019-01-19T09:51:37.959Z,17.37
2019-01-19T09:54:07.447Z,15.58
2019-01-19T09:56:36.612Z,18.42
2019-01-19T09:59:06.790Z,16.12
2019-01-19T10:01:54.097Z,17.55
2019-01-19T10:04:23.260Z,15.35
2019-01-19T10:06:53.551Z,17.37
2019-01-19T10:09:22.860Z,15.68
2019-01-19T10:11:52.112Z,16.77
2019-01-19T10:14:21.297Z,18.87
2019-01-19T10:16:50.530Z,21.45
2019-01-19T10:19:37.562Z,16.02
2019-01-19T10:22:25.017Z,17.85
2019-01-19T10:24:54.217Z,19.15
2019-01-19T10:27:23.425Z,14.47
2019-01-19T10:30:14.033Z,13.85
2019-01-19T10:32:43.212Z,13.32
2019-01-19T10:35:14.060Z,15.78
2019-01-19T10:37:43.370Z,17.12
2019-01-19T10:40:15.196Z,16.70
2019-01-19T10:42:44.395Z,17.42
2019-01-19T10:45:16.318Z,14.95
2019-01-19T10:47:45.583Z,14.90
2019-01-19T10:50:17.263Z,14.47
2019-01-19T10:52:46.935Z,14.78
2019-01-19T10:55:18.880Z,15.23
2019-01-19T10:58:06.231Z,18.12
2019-01-19T11:00:35.967Z,14.78
2019-01-19T11:03:05.595Z,13.80
2019-01-19T11:05:34.809Z,13.40
2019-01-19T11:08:06.497Z,15.90
2019-01-19T11:10:36.188Z,16.70
2019-01-19T11:13:05.396Z,17.42
2019-01-19T11:15:34.619Z,15.48
2019-01-19T11:18:03.870Z,18.65
2019-01-19T11:20:51.237Z,14.63
2019-01-19T11:23:20.514Z,15.70
2019-01-19T11:25:49.635Z,11.95
2019-01-19T11:28:18.868Z,14.23
2019-01-19T11:30:48.135Z,17.45
2019-01-19T11:33:17.327Z,21.25
2019-01-19T11:35:46.529Z,13.85
2019-01-19T11:38:20.020Z,15.98
2019-01-19T11:40:46.696Z,15.78
2019-01-19T11:43:15.918Z,13.60
2019-01-19T11:45:45.209Z,16.12
2019-01-19T11:48:14.475Z,17.90
2019-01-19T11:50:43.730Z,15.70
2019-01-19T11:53:13.005Z,14.13
2019-01-19T11:55:42.222Z,13.38
2019-01-19T11:58:11.472Z,14.33
2019-01-19T12:00:41.020Z,11.53
2019-01-19T12:03:10.222Z,16.62
2019-01-19T12:05:39.771Z,14.87
2019-01-19T12:08:09.922Z,15.23
2019-01-19T12:10:39.167Z,14.68
2019-01-19T12:13:08.486Z,15.13
2019-01-19T12:15:37.760Z,18.27
2019-01-19T12:18:07.310Z,14.65
2019-01-19T12:20:41.782Z,11.40
2019-01-19T12:23:28.983Z,16.67
2019-01-19T12:25:58.206Z,11.80
2019-01-19T12:28:27.418Z,12.98
2019-01-19T12:30:56.641Z,15.20
2019-01-19T12:33:25.844Z,14.90
2019-01-19T12:35:55.061Z,11.25
2019-01-19T12:38:27.063Z,12.33
2019-01-19T12:40:55.153Z,14.45
2019-01-19T12:43:24.436Z,15.08
2019-01-19T12:45:55.376Z,10.58
2019-01-19T12:48:24.638Z,12.93
2019-01-19T12:50:53.900Z,11.95
2019-01-19T12:53:23.088Z,14.73
2019-01-19T12:55:52.274Z,13.15
2019-01-19T12:58:21.665Z,12.15
2019-01-19T13:00:50.848Z,15.15
2019-01-19T13:03:20.073Z,12.90
2019-01-19T13:05:54.931Z,13.00
2019-01-19T13:08:34.380Z,9.35
2019-01-19T13:11:17.387Z,11.30
2019-01-19T13:13:47.930Z,12.28
2019-01-19T13:16:38.549Z,11.68
2019-01-19T13:19:19.667Z,12.60
2019-01-19T13:22:25.077Z,13.10
2019-01-19T13:25:00.148Z,13.68
2019-01-19T13:27:43.866Z,14.28
2019-01-19T13:30:27.760Z,16.32
2019-01-19T13:33:00.129Z,16.23
2019-01-19T13:35:32.281Z,13.88
2019-01-19T13:38:22.461Z,14.05
2019-01-19T13:40:57.571Z,14.98
2019-01-19T13:43:29.853Z,16.05
2019-01-19T13:46:16.190Z,16.82
2019-01-19T13:48:57.012Z,16.07
2019-01-19T13:51:34.968Z,16.42
2019-01-19T13:54:34.526Z,20.02
2019-01-19T13:57:09.451Z,15.63
2019-01-19T13:59:47.012Z,17.60
2019-01-19T14:02:28.160Z,18.90
2019-01-19T14:05:12.210Z,17.07
2019-01-19T14:08:15.852Z,15.25
2019-01-19T14:10:53.585Z,17.17
2019-01-19T14:13:31.366Z,20.52
2019-01-19T14:16:15.415Z,17.57
2019-01-19T14:21:54.885Z,18.37
2019-01-19T14:24:32.684Z,17.48
2019-01-19T14:27:10.697Z,23.27
2019-01-19T14:29:58.070Z,20.48
2019-01-19T14:32:50.925Z,21.68
2019-01-19T14:35:23.927Z,18.92
2019-01-19T14:38:07.840Z,20.37
2019-01-19T14:40:42.665Z,18.40
2019-01-19T14:43:17.763Z,18.37
2019-01-19T14:45:58.710Z,19.05
2019-01-19T14:48:33.393Z,19.52
2019-01-19T14:51:14.339Z,16.30
2019-01-19T14:54:00.712Z,19.25
2019-01-19T14:59:29.349Z,20.50
2019-01-19T15:02:18.306Z,18.27
2019-01-19T15:04:56.013Z,17.32
2019-01-19T15:07:33.911Z,18.35
2019-01-19T15:10:08.876Z,16.70
2019-01-19T15:12:41.124Z,15.38
2019-01-19T15:15:37.238Z,16.65
2019-01-19T15:18:12.094Z,17.50
2019-01-19T15:20:44.385Z,18.95
2019-01-19T15:23:19.389Z,19.12
2019-01-19T15:26:15.004Z,22.20
2019-01-19T15:29:03.590Z,19.57
2019-01-19T15:31:48.013Z,17.87
2019-01-19T15:34:31.261Z,19.37
2019-01-19T15:37:09.067Z,17.40
2019-01-19T15:39:41.326Z,23.98
2019-01-19T15:42:35.940Z,21.80
2019-01-19T15:45:10.688Z,18.37
2019-01-19T15:48:00.804Z,17.95
2019-01-19T15:51:04.741Z,19.55
2019-01-19T15:53:56.483Z,18.32
2019-01-19T15:56:43.658Z,18.48
2019-01-19T15:59:32.485Z,23.27
2019-01-19T16:02:16.925Z,18.85
2019-01-19T16:04:55.081Z,16.32
2019-01-19T16:07:49.177Z,22.30
2019-01-19T16:10:32.975Z,20.05
2019-01-19T16:13:29.147Z,19.82
2019-01-19T16:16:04.018Z,16.07
2019-01-19T16:18:44.888Z,20.45
2019-01-19T16:21:17.171Z,22.73
2019-01-19T16:24:14.885Z,19.42
2019-01-19T16:26:55.878Z,17.55
2019-01-19T16:29:48.765Z,20.55
2019-01-19T16:32:30.001Z,19.60
2019-01-19T16:35:20.431Z,17.95
2019-01-19T16:37:55.504Z,23.27
2019-01-19T16:40:42.531Z,19.23
2019-01-19T16:43:20.225Z,18.60
2019-01-19T16:45:52.492Z,18.73
2019-01-19T16:48:53.373Z,19.70
2019-01-19T16:51:58.642Z,21.87
2019-01-19T16:54:39.590Z,20.20
2019-01-19T16:57:15.138Z,19.00
2019-01-19T16:59:56.804Z,18.50
2019-01-19T17:02:34.947Z,16.40
2019-01-19T17:05:24.357Z,21.20
2019-01-19T17:08:12.746Z,18.40
2019-01-19T17:11:05.892Z,19.15
2019-01-19T17:13:40.687Z,17.27
2019-01-19T17:16:30.851Z,18.75
2019-01-19T17:19:14.891Z,18.50
2019-01-19T17:21:49.963Z,16.75
2019-01-19T17:24:46.464Z,20.72
2019-01-19T17:27:24.503Z,15.55
2019-01-19T17:30:31.252Z,18.48
2019-01-19T17:33:08.807Z,15.50
2019-01-19T17:35:49.581Z,27.37
2019-01-19T17:38:47.507Z,18.73
2019-01-19T17:41:25.024Z,20.70
2019-01-19T17:44:06.438Z,15.03
2019-01-19T17:46:55.189Z,19.45
2019-01-19T17:49:43.629Z,20.68
2019-01-19T17:52:21.604Z,20.37
2019-01-19T17:55:05.985Z,19.15
2019-01-19T17:57:43.999Z,20.00
2019-01-19T18:00:32.895Z,21.50
2019-01-19T18:03:23.296Z,17.32
2019-01-19T18:05:58.267Z,21.07
2019-01-19T18:08:56.133Z,19.80
2019-01-19T18:11:43.421Z,17.12
2019-01-19T18:14:21.594Z,16.52
2019-01-19T18:17:20.935Z,18.48
2019-01-19T18:20:08.038Z,15.35
2019-01-19T18:22:43.065Z,15.88
2019-01-19T18:25:32.945Z,16.05
2019-01-19T18:28:05.249Z,15.78
2019-01-19T18:30:38.371Z,15.60
2019-01-19T18:33:25.527Z,15.08
2019-01-19T18:35:57.785Z,17.00
2019-01-19T18:38:30.020Z,16.97
2019-01-19T18:41:04.797Z,19.65
2019-01-19T18:44:06.005Z,15.80
2019-01-19T18:46:54.413Z,18.75
2019-01-19T18:49:44.487Z,15.38
2019-01-19T18:52:35.167Z,18.42
2019-01-19T18:55:16.315Z,18.30
2019-01-19T18:58:03.284Z,17.27
2019-01-19T19:00:50.211Z,19.92
2019-01-19T19:03:44.570Z,18.42
2019-01-19T19:06:23.085Z,16.57
2019-01-19T19:08:58.174Z,17.12
2019-01-19T19:11:47.994Z,20.25
2019-01-19T19:14:25.929Z,17.60
2019-01-19T19:17:03.555Z,19.57
2019-01-19T19:22:25.472Z,22.50
2019-01-19T19:25:20.555Z,18.57
2019-01-19T19:28:10.946Z,14.80
2019-01-19T19:30:43.430Z,18.50
2019-01-19T19:33:20.991Z,14.47
2019-01-19T19:36:13.453Z,18.10
2019-01-19T19:39:09.522Z,18.12
2019-01-19T19:41:43.691Z,18.37
2019-01-19T19:44:21.917Z,16.50
2019-01-19T19:47:08.990Z,19.50
2019-01-19T19:49:49.980Z,16.67
2019-01-19T19:52:19.298Z,16.73
2019-01-19T19:54:53.311Z,18.62
2019-01-19T19:57:22.475Z,17.50
2019-01-19T19:59:55.959Z,17.55
2019-01-19T20:02:25.271Z,23.57
2019-01-19T20:04:54.538Z,18.48
2019-01-19T20:07:23.759Z,18.52
2019-01-19T20:09:52.942Z,22.85
2019-01-19T20:12:22.219Z,20.00
2019-01-19T20:14:51.407Z,16.05
2019-01-19T20:17:20.674Z,19.48
2019-01-19T20:19:49.868Z,18.50
2019-01-19T20:22:19.042Z,16.93
2019-01-19T20:24:48.318Z,17.23
2019-01-19T20:27:17.522Z,18.67
2019-01-19T20:29:46.720Z,17.17
2019-01-19T20:32:15.904Z,17.25
2019-01-19T20:34:45.117Z,14.85
2019-01-19T20:37:14.303Z,18.65
2019-01-19T20:39:43.491Z,17.45
2019-01-19T20:42:12.688Z,19.37
2019-01-19T20:44:41.876Z,21.48
2019-01-19T20:47:11.058Z,16.75
2019-01-19T20:49:40.293Z,20.55
2019-01-19T20:52:09.556Z,17.92
2019-01-19T20:54:38.942Z,19.02
2019-01-19T20:57:08.080Z,15.43
2019-01-19T20:59:37.367Z,17.62
2019-01-19T21:02:06.642Z,16.42
2019-01-19T21:04:35.868Z,14.03
2019-01-19T21:07:05.223Z,15.13
2019-01-19T21:09:34.465Z,17.30
2019-01-19T21:12:03.643Z,14.70
2019-01-19T21:14:32.832Z,18.62
2019-01-19T21:17:02.035Z,16.57
2019-01-19T21:19:31.222Z,12.85
2019-01-19T21:22:00.408Z,19.12
2019-01-19T21:24:29.690Z,15.55
2019-01-19T21:26:58.864Z,14.35
2019-01-19T21:29:28.138Z,16.77
2019-01-19T21:31:57.357Z,16.77
2019-01-19T21:34:26.544Z,12.63
2019-01-19T21:36:55.816Z,15.48
2019-01-19T21:39:25.030Z,16.70
2019-01-19T21:41:54.230Z,24.87
2019-01-19T21:44:23.424Z,13.65
2019-01-19T21:46:52.660Z,15.63
2019-01-19T21:49:21.991Z,15.10
2019-01-19T21:51:51.160Z,17.23
2019-01-19T21:54:20.418Z,14.80
2019-01-19T21:56:49.596Z,17.17
2019-01-19T21:59:18.800Z,16.50
2019-01-19T22:01:47.988Z,16.02
2019-01-19T22:04:17.176Z,12.37
2019-01-19T22:06:46.362Z,12.30
2019-01-19T22:09:17.480Z,14.63
2019-01-19T22:11:46.676Z,15.38
2019-01-19T22:14:15.904Z,15.60
2019-01-19T22:16:45.122Z,14.00
2019-01-19T22:19:14.320Z,19.12
2019-01-19T22:21:43.496Z,15.60
2019-01-19T22:24:12.960Z,14.40
2019-01-19T22:26:43.724Z,12.85
2019-01-19T22:29:12.908Z,14.28
2019-01-19T22:31:42.105Z,14.58
2019-01-19T22:34:11.298Z,15.85
2019-01-19T22:36:40.490Z,13.80
2019-01-19T22:39:09.704Z,15.55
2019-01-19T22:41:38.905Z,14.18
2019-01-19T22:44:08.189Z,14.20
2019-01-19T22:46:37.475Z,17.23
2019-01-19T22:49:06.726Z,15.08
2019-01-19T22:51:35.852Z,15.38
2019-01-19T22:54:05.142Z,15.15
2019-01-19T22:56:34.318Z,12.73
2019-01-19T22:59:03.687Z,15.55
2019-01-19T23:01:35.578Z,15.75
2019-01-19T23:04:04.952Z,14.68
2019-01-19T23:06:34.146Z,20.55
2019-01-19T23:09:05.355Z,13.88
2019-01-19T23:11:35.205Z,15.15
2019-01-19T23:14:06.197Z,14.43
2019-01-19T23:16:35.419Z,15.93
2019-01-19T23:19:04.763Z,15.95
2019-01-19T23:21:33.951Z,17.12
2019-01-19T23:24:03.224Z,16.90
2019-01-19T23:26:33.180Z,15.00
2019-01-19T23:29:02.379Z,14.65
2019-01-19T23:31:31.585Z,17.10
2019-01-19T23:34:00.775Z,15.72
2019-01-19T23:36:29.977Z,14.53
2019-01-19T23:38:59.195Z,17.15
2019-01-19T23:41:28.374Z,14.85
2019-01-19T23:43:57.567Z,13.38
2019-01-19T23:46:26.775Z,15.50
2019-01-19T23:48:56.104Z,15.40
2019-01-19T23:51:25.297Z,15.28
2019-01-19T23:53:54.691Z,16.73
2019-01-19T23:56:23.874Z,14.78
2019-01-19T23:58:53.143Z,14.07
